createdAt,value
2019-04-22T00:00:51.431Z,48.16
2019-04-22T00:03:23.567Z,48.47
2019-04-22T00:06:14.858Z,48.58
2019-04-22T00:08:50.655Z,48.57
2019-04-22T00:11:25.582Z,48.56
2019-04-22T00:16:33.885Z,48.10
2019-04-22T00:21:31.935Z,48.21
2019-04-22T00:24:07.525Z,48.36
2019-04-22T00:26:37.428Z,48.22
2019-04-22T00:29:21.056Z,48.61
2019-04-22T00:31:47.992Z,49.09
2019-04-22T00:34:16.189Z,48.91
2019-04-22T00:36:48.333Z,49.19
2019-04-22T00:39:28.332Z,49.37
2019-04-22T00:41:56.066Z,49.73
2019-04-22T00:44:33.300Z,49.74
2019-04-22T00:46:59.560Z,49.68
2019-04-22T00:50:07.885Z,49.67
2019-04-22T00:52:16.514Z,49.96
2019-04-22T00:54:35.984Z,50.16
2019-04-22T00:57:09.182Z,50.07
2019-04-22T00:59:40.319Z,50.12
2019-04-22T01:02:13.359Z,50.26
2019-04-22T01:07:11.643Z,50.88
2019-04-22T01:09:45.020Z,50.80
2019-04-22T01:12:21.003Z,51.17
2019-04-22T01:14:52.018Z,51.30
2019-04-22T01:17:21.250Z,51.27
2019-04-22T01:19:58.597Z,51.53
2019-04-22T01:22:22.338Z,51.47
2019-04-22T01:24:50.253Z,51.86
2019-04-22T01:27:20.599Z,52.03
2019-04-22T01:29:48.890Z,52.27
2019-04-22T01:32:15.338Z,52.22
2019-04-22T01:34:52.695Z,52.26
2019-04-22T01:37:28.829Z,52.51
2019-04-22T01:40:09.877Z,52.81
2019-04-22T01:42:43.204Z,52.74
2019-04-22T01:45:13.878Z,52.85
2019-04-22T01:47:47.069Z,52.81
2019-04-22T01:50:21.434Z,52.89
2019-04-22T01:52:52.132Z,53.09
2019-04-22T01:55:27.732Z,53.24
2019-04-22T01:57:47.654Z,53.40
2019-04-22T02:00:15.237Z,53.29
2019-04-22T02:02:58.814Z,53.26
2019-04-22T02:05:22.816Z,53.38
2019-04-22T02:07:59.463Z,53.56
2019-04-22T02:10:34.694Z,53.72
2019-04-22T02:13:04.479Z,53.73
2019-04-22T02:15:31.690Z,54.05
2019-04-22T02:18:11.987Z,54.19
2019-04-22T02:20:41.168Z,54.12
2019-04-22T02:23:43.889Z,54.25
2019-04-22T02:28:38.467Z,54.10
2019-04-22T02:31:20.103Z,54.26
2019-04-22T02:56:31.300Z,55.34
2019-04-22T02:59:02.431Z,55.31
2019-04-22T03:09:12.518Z,55.67
2019-04-22T03:16:38.363Z,56.43
2019-04-22T03:19:26.051Z,56.71
2019-04-22T03:21:36.704Z,56.85
2019-04-22T03:24:20.147Z,57.03
2019-04-22T03:29:15.068Z,56.82
2019-04-22T03:37:21.072Z,57.04
2019-04-22T03:42:09.808Z,56.91
2019-04-22T03:44:42.783Z,57.21
2019-04-22T03:49:49.913Z,57.16
2019-04-22T03:52:22.893Z,57.20
2019-04-22T03:54:54.475Z,57.31
2019-04-22T03:59:48.453Z,57.67
2019-04-22T04:10:02.241Z,57.54
2019-04-22T04:15:10.851Z,57.78
2019-04-22T04:22:54.147Z,58.19
2019-04-22T04:35:23.672Z,58.46
2019-04-22T04:37:51.552Z,58.57
2019-04-22T04:40:21.368Z,58.58
2019-04-22T04:50:20.545Z,58.81
2019-04-22T05:03:04.789Z,58.97
2019-04-22T05:05:31.522Z,59.12
2019-04-22T05:10:53.798Z,59.15
2019-04-22T05:20:53.352Z,59.75
2019-04-22T05:23:20.671Z,59.95
2019-04-22T05:25:41.030Z,60.21
2019-04-22T05:28:11.847Z,60.32
2019-04-22T05:30:41.035Z,60.44
2019-04-22T05:33:19.050Z,60.57
2019-04-22T05:35:51.126Z,60.59
2019-04-22T05:38:30.184Z,60.78
2019-04-22T05:40:54.148Z,60.80
2019-04-22T05:43:21.321Z,60.55
2019-04-22T05:45:59.206Z,61.03
2019-04-22T05:48:34.221Z,61.27
2019-04-22T05:51:01.041Z,61.51
2019-04-22T05:53:35.610Z,61.11
2019-04-22T05:56:06.984Z,61.57
2019-04-22T05:58:41.498Z,61.63
2019-04-22T06:03:46.154Z,62.14
2019-04-22T06:06:16.790Z,61.00
2019-04-22T06:08:45.466Z,60.92
2019-04-22T06:11:22.812Z,61.33
2019-04-22T06:13:46.543Z,61.36
2019-04-22T06:16:26.524Z,59.23
2019-04-22T06:19:02.675Z,58.55
2019-04-22T06:21:35.639Z,58.81
2019-04-22T06:24:10.598Z,57.75
2019-04-22T06:26:48.895Z,58.24
2019-04-22T06:29:13.323Z,59.12
2019-04-22T06:32:03.433Z,59.91
2019-04-22T06:36:45.075Z,58.04
2019-04-22T06:41:50.586Z,56.17
2019-04-22T06:44:18.727Z,56.93
2019-04-22T06:49:25.150Z,58.03
2019-04-22T06:51:54.043Z,58.63
2019-04-22T06:56:58.112Z,56.65
2019-04-22T06:59:31.223Z,56.77
2019-04-22T07:02:04.811Z,58.00
2019-04-22T07:04:31.502Z,57.72
2019-04-22T07:12:06.393Z,51.74
2019-04-22T07:14:38.008Z,51.82
2019-04-22T07:17:15.903Z,51.53
2019-04-22T07:22:19.843Z,51.73
2019-04-22T07:24:52.754Z,51.40
2019-04-22T07:27:18.817Z,51.71
2019-04-22T07:29:55.855Z,51.22
2019-04-22T07:32:29.390Z,50.61
2019-04-22T07:34:52.196Z,50.25
2019-04-22T07:37:34.300Z,49.62
2019-04-22T07:39:55.167Z,49.60
2019-04-22T07:42:34.041Z,49.52
2019-04-22T07:47:38.260Z,49.28
2019-04-22T07:50:08.243Z,49.43
2019-04-22T07:52:35.241Z,48.74
2019-04-22T07:55:01.055Z,49.24
2019-04-22T07:57:41.273Z,49.17
2019-04-22T08:00:16.098Z,48.98
2019-04-22T08:02:44.221Z,48.74
2019-04-22T08:05:16.866Z,48.30
2019-04-22T08:07:49.006Z,48.61
2019-04-22T08:10:27.022Z,48.62
2019-04-22T08:12:51.942Z,48.74
2019-04-22T08:15:21.318Z,47.86
2019-04-22T08:20:29.878Z,45.72
2019-04-22T08:25:33.482Z,44.00
2019-04-22T08:28:03.321Z,43.53
2019-04-22T08:30:34.479Z,42.98
2019-04-22T08:33:10.422Z,43.79
2019-04-22T08:35:53.866Z,43.10
2019-04-22T08:38:11.481Z,42.28
2019-04-22T08:40:50.133Z,41.86
2019-04-22T08:43:24.793Z,41.86
2019-04-22T08:45:51.091Z,41.83
2019-04-22T08:50:58.550Z,40.82
2019-04-22T08:53:29.157Z,40.41
2019-04-22T08:56:07.449Z,41.09
2019-04-22T08:58:32.950Z,40.89
2019-04-22T09:03:30.484Z,42.71
2019-04-22T09:06:04.473Z,42.79
2019-04-22T09:08:38.610Z,42.81
2019-04-22T09:11:11.321Z,43.99
2019-04-22T09:13:43.783Z,44.20
2019-04-22T09:16:19.383Z,43.54
2019-04-22T09:18:48.674Z,41.66
2019-04-22T09:21:34.415Z,42.02
2019-04-22T09:23:54.034Z,40.94
2019-04-22T09:26:23.908Z,39.86
2019-04-22T09:31:23.914Z,40.35
2019-04-22T09:33:53.223Z,39.97
2019-04-22T09:36:33.907Z,39.25
2019-04-22T09:39:00.841Z,38.25
2019-04-22T09:41:36.776Z,38.42
2019-04-22T09:44:19.072Z,37.88
2019-04-22T09:49:11.932Z,37.60
2019-04-22T09:51:37.434Z,37.12
2019-04-22T09:54:16.683Z,38.61
2019-04-22T09:56:43.792Z,38.68
2019-04-22T09:59:13.943Z,38.50
2019-04-22T10:02:02.476Z,38.47
2019-04-22T10:04:18.585Z,38.83
2019-04-22T10:06:56.122Z,38.79
2019-04-22T10:09:52.413Z,38.82
2019-04-22T10:11:57.729Z,39.33
2019-04-22T10:15:25.198Z,39.25
2019-04-22T10:17:02.393Z,38.80
2019-04-22T10:19:29.970Z,37.93
2019-04-22T10:22:07.310Z,37.01
2019-04-22T10:24:33.562Z,37.58
2019-04-22T10:27:08.042Z,36.78
2019-04-22T10:29:41.595Z,35.69
2019-04-22T10:32:08.451Z,37.81
2019-04-22T10:34:30.337Z,36.60
2019-04-22T10:36:54.331Z,36.46
2019-04-22T10:39:20.409Z,35.23
2019-04-22T10:41:50.676Z,35.81
2019-04-22T10:44:21.312Z,35.77
2019-04-22T10:46:51.972Z,35.56
2019-04-22T10:49:22.377Z,34.85
2019-04-22T10:51:52.931Z,34.85
2019-04-22T10:54:23.359Z,33.02
2019-04-22T10:56:53.276Z,34.01
2019-04-22T10:59:23.055Z,34.29
2019-04-22T11:01:53.010Z,34.15
2019-04-22T11:04:22.947Z,33.82
2019-04-22T11:06:57.688Z,32.67
2019-04-22T11:09:25.314Z,33.48
2019-04-22T11:12:02.237Z,32.93
2019-04-22T11:14:28.498Z,31.39
2019-04-22T11:17:02.275Z,31.46
2019-04-22T11:19:31.906Z,31.46
2019-04-22T11:22:09.605Z,30.44
2019-04-22T11:24:34.692Z,31.04
2019-04-22T11:27:05.416Z,31.95
2019-04-22T11:29:37.478Z,31.52
2019-04-22T11:32:12.795Z,29.21
2019-04-22T11:34:44.828Z,29.21
2019-04-22T11:37:18.680Z,31.39
2019-04-22T11:40:04.640Z,31.39
2019-04-22T11:42:20.473Z,31.30
2019-04-22T11:44:50.982Z,31.71
2019-04-22T11:47:23.310Z,29.47
2019-04-22T11:49:54.511Z,30.27
2019-04-22T11:52:24.765Z,29.77
2019-04-22T11:54:54.991Z,29.23
2019-04-22T11:57:28.716Z,29.80
2019-04-22T11:59:58.969Z,29.12
2019-04-22T12:02:33.112Z,28.80
2019-04-22T12:05:03.819Z,27.41
2019-04-22T12:07:36.568Z,28.58
2019-04-22T12:10:22.363Z,28.79
2019-04-22T12:12:38.048Z,28.67
2019-04-22T12:15:08.730Z,29.81
2019-04-22T12:17:40.455Z,28.58
2019-04-22T12:20:14.190Z,27.68
2019-04-22T12:22:45.039Z,26.18
2019-04-22T12:25:31.243Z,27.24
2019-04-22T12:27:48.481Z,27.69
2019-04-22T12:30:19.595Z,26.16
2019-04-22T12:32:50.525Z,25.52
2019-04-22T12:35:22.110Z,25.58
2019-04-22T12:37:57.523Z,23.50
2019-04-22T12:40:33.346Z,24.88
2019-04-22T12:42:57.659Z,24.20
2019-04-22T12:45:27.780Z,24.16
2019-04-22T12:47:57.987Z,25.67
2019-04-22T12:50:33.742Z,26.22
2019-04-22T12:53:08.442Z,26.29
2019-04-22T12:55:34.387Z,24.40
2019-04-22T12:58:05.464Z,24.76
2019-04-22T13:00:36.308Z,24.13
2019-04-22T13:03:07.419Z,24.20
2019-04-22T13:05:37.582Z,24.78
2019-04-22T13:08:09.581Z,24.00
2019-04-22T13:10:50.513Z,24.97
2019-04-22T13:13:13.136Z,25.13
2019-04-22T13:15:46.802Z,23.88
2019-04-22T13:18:27.687Z,24.22
2019-04-22T13:20:50.608Z,23.49
2019-04-22T13:23:22.121Z,23.97
2019-04-22T13:25:52.657Z,23.41
2019-04-22T13:28:23.108Z,23.84
2019-04-22T13:30:54.721Z,22.57
2019-04-22T13:33:25.084Z,22.47
2019-04-22T13:35:55.123Z,23.56
2019-04-22T13:38:26.902Z,23.31
2019-04-22T13:41:07.317Z,23.78
2019-04-22T13:43:29.172Z,23.32
2019-04-22T13:46:01.707Z,20.89
2019-04-22T13:48:53.789Z,20.69
2019-04-22T13:51:36.386Z,22.14
2019-04-22T13:54:40.716Z,21.61
2019-04-22T13:56:33.192Z,22.09
2019-04-22T13:58:54.189Z,22.51
2019-04-22T14:01:16.544Z,22.51
2019-04-22T14:04:12.151Z,23.10
2019-04-22T14:06:44.542Z,22.79
2019-04-22T14:09:16.826Z,22.62
2019-04-22T14:11:52.890Z,22.98
2019-04-22T14:14:20.024Z,22.93
2019-04-22T14:16:50.995Z,22.87
2019-04-22T14:19:21.023Z,23.48
2019-04-22T14:21:51.556Z,23.09
2019-04-22T14:24:22.035Z,21.98
2019-04-22T14:27:07.246Z,23.33
2019-04-22T14:29:23.998Z,23.22
2019-04-22T14:32:06.696Z,23.30
2019-04-22T14:34:26.918Z,24.12
2019-04-22T14:36:59.296Z,23.41
2019-04-22T14:39:30.346Z,24.09
2019-04-22T14:42:27.189Z,24.31
2019-04-22T14:47:33.964Z,25.01
2019-04-22T14:50:00.511Z,24.69
2019-04-22T14:52:34.622Z,24.38
2019-04-22T14:54:54.388Z,24.29
2019-04-22T14:57:15.085Z,25.16
2019-04-22T14:59:46.148Z,25.02
2019-04-22T15:02:16.564Z,24.99
2019-04-22T15:04:48.019Z,25.16
2019-04-22T15:07:19.205Z,25.08
2019-04-22T15:09:50.592Z,25.08
2019-04-22T15:12:31.203Z,24.06
2019-04-22T15:14:53.426Z,25.33
2019-04-22T15:17:40.819Z,25.66
2019-04-22T15:20:21.524Z,24.62
2019-04-22T15:22:52.658Z,25.44
2019-04-22T15:25:22.883Z,25.76
2019-04-22T15:27:55.305Z,25.33
2019-04-22T15:30:25.544Z,25.89
2019-04-22T15:32:57.106Z,25.61
2019-04-22T15:35:27.324Z,25.30
2019-04-22T15:37:57.342Z,26.22
2019-04-22T15:40:28.896Z,25.55
2019-04-22T15:42:59.728Z,24.70
2019-04-22T15:45:30.961Z,25.30
2019-04-22T15:48:02.096Z,24.24
2019-04-22T15:50:34.883Z,24.66
2019-04-22T15:53:05.283Z,23.75
2019-04-22T15:55:36.731Z,24.17
2019-04-22T15:58:08.020Z,24.17
2019-04-22T16:00:49.342Z,23.64
2019-04-22T16:03:12.317Z,22.31
2019-04-22T16:05:43.917Z,22.84
2019-04-22T16:08:14.987Z,22.74
2019-04-22T16:10:46.183Z,23.42
2019-04-22T16:13:22.338Z,22.96
2019-04-22T16:15:48.981Z,23.99
2019-04-22T16:18:20.145Z,24.97
2019-04-22T16:20:50.374Z,24.13
2019-04-22T16:23:29.682Z,24.52
2019-04-22T16:26:22.088Z,25.24
2019-04-22T16:28:55.427Z,24.90
2019-04-22T16:31:25.072Z,23.22
2019-04-22T16:33:56.285Z,23.80
2019-04-22T16:36:26.926Z,24.31
2019-04-22T16:38:57.328Z,24.34
2019-04-22T16:41:28.683Z,24.76
2019-04-22T16:43:58.798Z,25.08
2019-04-22T16:46:29.770Z,25.05
2019-04-22T16:49:01.336Z,24.91
2019-04-22T16:51:32.061Z,25.27
2019-04-22T16:54:02.217Z,25.78
2019-04-22T16:56:35.086Z,25.90
2019-04-22T16:59:04.537Z,26.48
2019-04-22T17:02:02.433Z,26.01
2019-04-22T17:04:43.011Z,25.95
2019-04-22T17:07:14.457Z,26.38
2019-04-22T17:09:45.820Z,26.22
2019-04-22T17:12:16.148Z,26.61
2019-04-22T17:14:52.764Z,27.32
2019-04-22T17:17:18.356Z,26.51
2019-04-22T17:19:49.299Z,26.35
2019-04-22T17:22:21.725Z,26.85
2019-04-22T17:24:51.816Z,26.67
2019-04-22T17:27:22.375Z,27.09
2019-04-22T17:29:54.639Z,27.45
2019-04-22T17:32:26.969Z,27.75
2019-04-22T17:34:57.381Z,27.81
2019-04-22T17:37:33.354Z,27.55
2019-04-22T17:40:17.881Z,28.71
2019-04-22T17:42:53.200Z,28.74
2019-04-22T17:45:33.935Z,29.18
2019-04-22T17:48:22.280Z,29.05
2019-04-22T17:50:59.983Z,29.51
2019-04-22T17:53:37.886Z,30.12
2019-04-22T17:56:05.159Z,30.44
2019-04-22T17:58:34.712Z,30.52
2019-04-22T18:01:09.232Z,30.65
2019-04-22T18:03:25.696Z,31.11
2019-04-22T18:05:56.147Z,31.15
2019-04-22T18:08:42.207Z,31.26
2019-04-22T18:11:21.766Z,31.27
2019-04-22T18:13:44.556Z,31.43
2019-04-22T18:16:18.171Z,31.01
2019-04-22T18:18:47.649Z,30.80
2019-04-22T18:21:14.718Z,31.27
2019-04-22T18:23:46.104Z,31.07
2019-04-22T18:26:17.033Z,30.52
2019-04-22T18:29:02.459Z,30.68
2019-04-22T18:31:21.541Z,31.47
2019-04-22T18:33:59.440Z,31.54
2019-04-22T18:36:31.846Z,31.11
2019-04-22T18:39:12.920Z,31.17
2019-04-22T18:41:38.284Z,31.18
2019-04-22T18:44:09.676Z,31.62
2019-04-22T18:49:30.684Z,30.81
2019-04-22T18:52:32.972Z,31.29
2019-04-22T18:55:16.373Z,31.39
2019-04-22T18:58:06.684Z,30.97
2019-04-22T19:00:27.325Z,31.61
2019-04-22T19:03:07.457Z,31.62
2019-04-22T19:05:49.696Z,31.29
2019-04-22T19:08:29.149Z,30.52
2019-04-22T19:16:24.396Z,30.63
2019-04-22T19:18:39.189Z,30.43
2019-04-22T19:21:19.381Z,31.02
2019-04-22T19:23:37.626Z,30.83
2019-04-22T19:26:11.926Z,30.41
2019-04-22T19:28:46.471Z,31.43
2019-04-22T19:31:19.365Z,31.19
2019-04-22T19:33:49.373Z,31.33
2019-04-22T19:36:23.785Z,30.96
2019-04-22T19:38:51.069Z,30.96
2019-04-22T19:41:24.330Z,30.92
2019-04-22T19:43:58.938Z,30.47
2019-04-22T19:46:22.335Z,30.43
2019-04-22T19:49:03.616Z,29.94
2019-04-22T19:51:44.035Z,30.53
2019-04-22T19:54:01.121Z,30.64
2019-04-22T19:56:29.714Z,30.43
2019-04-22T19:59:03.622Z,30.61
2019-04-22T20:02:10.337Z,31.20
2019-04-22T20:05:14.704Z,30.17
2019-04-22T20:07:40.558Z,30.26
2019-04-22T20:10:19.612Z,29.34
2019-04-22T20:12:42.890Z,29.32
2019-04-22T20:15:14.207Z,29.03
2019-04-22T20:18:09.690Z,28.86
2019-04-22T20:20:27.686Z,29.18
2019-04-22T20:22:52.472Z,28.87
2019-04-22T20:25:16.775Z,28.92
2019-04-22T20:28:01.278Z,29.20
2019-04-22T20:30:46.098Z,28.67
2019-04-22T20:32:59.231Z,29.33
2019-04-22T20:35:39.052Z,30.05
2019-04-22T20:38:08.929Z,30.95
2019-04-22T20:40:41.392Z,31.30
2019-04-22T20:43:23.527Z,31.32
2019-04-22T20:45:46.637Z,31.32
2019-04-22T20:48:07.869Z,30.86
2019-04-22T20:50:52.888Z,30.76
2019-04-22T20:53:26.225Z,31.90
2019-04-22T20:55:56.629Z,31.13
2019-04-22T20:58:30.107Z,30.84
2019-04-22T21:00:53.094Z,31.32
2019-04-22T21:03:20.861Z,30.68
2019-04-22T21:05:52.982Z,31.70
2019-04-22T21:08:36.987Z,31.70
2019-04-22T21:10:56.139Z,32.04
2019-04-22T21:13:33.044Z,31.33
2019-04-22T21:16:21.989Z,31.40
2019-04-22T21:18:44.725Z,31.22
2019-04-22T21:21:19.604Z,30.82
2019-04-22T21:23:45.846Z,30.87
2019-04-22T21:26:24.055Z,31.46
2019-04-22T21:28:53.199Z,31.58
2019-04-22T21:31:33.336Z,30.29
2019-04-22T21:33:59.738Z,30.29
2019-04-22T21:36:40.397Z,31.57
2019-04-22T21:39:05.295Z,31.42
2019-04-22T21:41:37.598Z,30.76
2019-04-22T21:44:12.448Z,30.50
2019-04-22T21:46:42.885Z,31.03
2019-04-22T21:49:12.828Z,31.13
2019-04-22T21:51:52.216Z,30.70
2019-04-22T21:54:21.621Z,30.30
2019-04-22T21:57:24.100Z,30.61
2019-04-22T21:59:47.095Z,30.45
2019-04-22T22:02:25.214Z,30.64
2019-04-22T22:04:48.038Z,30.85
2019-04-22T22:07:13.209Z,30.85
2019-04-22T22:09:54.444Z,30.97
2019-04-22T22:12:26.606Z,31.53
2019-04-22T22:15:04.068Z,31.85
2019-04-22T22:17:30.722Z,31.74
2019-04-22T22:20:00.285Z,31.74
2019-04-22T22:22:45.494Z,31.92
2019-04-22T22:25:08.827Z,32.01
2019-04-22T22:27:40.601Z,32.11
2019-04-22T22:30:29.421Z,32.24
2019-04-22T22:32:43.444Z,32.91
2019-04-22T22:35:18.975Z,32.91
2019-04-22T22:37:46.607Z,33.27
2019-04-22T22:40:08.701Z,33.39
2019-04-22T22:42:36.979Z,33.21
2019-04-22T22:45:13.909Z,33.12
2019-04-22T22:47:53.280Z,33.57
2019-04-22T22:50:26.002Z,33.71
2019-04-22T22:53:06.604Z,33.83
2019-04-22T22:55:29.626Z,33.59
2019-04-22T22:58:08.204Z,33.48
2019-04-22T23:00:33.926Z,33.37
2019-04-22T23:03:36.467Z,33.50
2019-04-22T23:05:45.822Z,33.70
2019-04-22T23:08:16.938Z,33.75
2019-04-22T23:10:52.852Z,34.06
2019-04-22T23:13:22.220Z,33.93
2019-04-22T23:15:42.813Z,33.36
2019-04-22T23:17:58.198Z,33.43
2019-04-22T23:20:34.348Z,33.93
2019-04-22T23:23:21.862Z,33.81
2019-04-22T23:25:54.989Z,34.27
2019-04-22T23:28:38.008Z,34.81
2019-04-22T23:31:31.757Z,34.67
2019-04-22T23:34:10.596Z,34.67
2019-04-22T23:37:01.581Z,34.51
2019-04-22T23:39:42.046Z,34.06
2019-04-22T23:42:13.439Z,34.09
2019-04-22T23:44:42.268Z,34.51
2019-04-22T23:47:11.161Z,34.83
2019-04-22T23:49:47.025Z,35.33
2019-04-22T23:52:23.804Z,35.12
2019-04-22T23:55:03.166Z,35.29
2019-04-22T23:57:33.094Z,35.62
